createdAt,value
2018-04-01T00:00:07.001Z,55.30
2018-04-01T00:01:06.995Z,52.10
2018-04-01T00:02:06.996Z,53.00
2018-04-01T00:03:06.998Z,53.60
2018-04-01T00:04:07.009Z,56.00
2018-04-01T00:05:07.010Z,54.10
2018-04-01T00:06:07.015Z,54.40
2018-04-01T00:07:07.061Z,52.20
2018-04-01T00:08:07.020Z,51.10
2018-04-01T00:09:07.022Z,49.40
2018-04-01T00:10:07.028Z,50.80
2018-04-01T00:11:07.034Z,50.30
2018-04-01T00:12:07.024Z,51.20
2018-04-01T00:13:07.030Z,49.10
2018-04-01T00:14:07.042Z,51.60
2018-04-01T00:15:07.047Z,50.40
2018-04-01T00:16:07.050Z,48.40
2018-04-01T00:17:07.038Z,48.40
2018-04-01T00:18:07.050Z,48.20
2018-04-01T00:19:07.047Z,47.70
2018-04-01T00:20:07.083Z,48.10
2018-04-01T00:21:07.058Z,48.20
2018-04-01T00:22:07.060Z,48.40
2018-04-01T00:23:07.085Z,44.90
2018-04-01T00:24:07.056Z,46.50
2018-04-01T00:25:07.072Z,45.60
2018-04-01T00:26:07.077Z,45.30
2018-04-01T00:27:07.087Z,44.80
2018-04-01T00:28:07.068Z,45.40
2018-04-01T00:29:07.072Z,44.00
2018-04-01T00:30:07.073Z,45.10
2018-04-01T00:31:07.079Z,43.80
2018-04-01T00:32:07.084Z,44.60
2018-04-01T00:33:07.092Z,45.40
2018-04-01T00:34:07.083Z,44.10
2018-04-01T00:35:07.100Z,45.40
2018-04-01T00:36:07.096Z,43.20
2018-04-01T00:37:07.102Z,44.10
2018-04-01T00:38:07.105Z,44.70
2018-04-01T00:39:07.097Z,44.00
2018-04-01T00:40:07.106Z,43.20
2018-04-01T00:41:07.113Z,44.50
2018-04-01T00:42:07.116Z,43.70
2018-04-01T00:43:07.111Z,42.80
2018-04-01T00:44:07.113Z,44.10
2018-04-01T00:45:07.886Z,44.90
2018-04-01T00:46:07.124Z,44.90
2018-04-01T00:47:07.125Z,44.40
2018-04-01T00:48:07.128Z,46.10
2018-04-01T00:49:07.155Z,44.90
2018-04-01T00:50:07.140Z,44.70
2018-04-01T00:51:07.136Z,45.00
2018-04-01T00:52:07.138Z,43.50
2018-04-01T00:53:07.145Z,45.30
2018-04-01T00:54:07.154Z,44.80
2018-04-01T00:55:07.146Z,44.60
2018-04-01T00:56:07.144Z,46.20
2018-04-01T00:57:07.155Z,44.20
2018-04-01T00:58:07.159Z,44.90
2018-04-01T00:59:07.158Z,46.40
2018-04-01T01:00:07.166Z,44.60
2018-04-01T01:01:07.187Z,45.00
2018-04-01T01:02:07.166Z,44.80
2018-04-01T01:03:07.175Z,45.00
2018-04-01T01:04:07.177Z,46.90
2018-04-01T01:05:07.180Z,45.50
2018-04-01T01:06:07.182Z,45.50
2018-04-01T01:07:07.188Z,47.20
2018-04-01T01:08:07.187Z,45.30
2018-04-01T01:09:07.192Z,44.50
2018-04-01T01:10:07.196Z,44.60
2018-04-01T01:11:07.189Z,45.20
2018-04-01T01:12:07.221Z,44.60
2018-04-01T01:13:07.201Z,47.00
2018-04-01T01:14:07.897Z,44.90
2018-04-01T01:15:07.208Z,45.60
2018-04-01T01:16:07.214Z,45.60
2018-04-01T01:17:07.219Z,46.30
2018-04-01T01:18:07.213Z,49.80
2018-04-01T01:19:07.213Z,48.00
2018-04-01T01:20:07.219Z,47.80
2018-04-01T01:21:07.229Z,48.10
2018-04-01T01:22:07.233Z,47.10
2018-04-01T01:23:07.270Z,49.20
2018-04-01T01:24:07.244Z,49.60
2018-04-01T01:25:07.232Z,50.40
2018-04-01T01:26:07.233Z,49.70
2018-04-01T01:27:07.243Z,49.30
2018-04-01T01:28:07.244Z,49.80
2018-04-01T01:29:07.255Z,50.80
2018-04-01T01:30:07.257Z,50.00
2018-04-01T01:31:07.257Z,51.70
2018-04-01T01:32:07.262Z,54.70
2018-04-01T01:33:07.261Z,52.40
2018-04-01T01:34:07.267Z,53.40
2018-04-01T01:35:07.279Z,54.50
2018-04-01T01:36:07.266Z,53.70
2018-04-01T01:37:07.281Z,54.50
2018-04-01T01:38:07.282Z,53.90
2018-04-01T01:39:07.284Z,52.80
2018-04-01T01:40:07.284Z,54.60
2018-04-01T01:41:07.288Z,52.70
2018-04-01T01:42:07.291Z,53.50
2018-04-01T01:43:07.290Z,51.70
2018-04-01T01:44:07.291Z,52.90
2018-04-01T01:45:07.298Z,52.60
2018-04-01T01:46:07.302Z,54.50
2018-04-01T01:47:07.313Z,52.10
2018-04-01T01:48:07.317Z,54.10
2018-04-01T01:49:07.323Z,53.40
2018-04-01T01:50:07.316Z,52.20
2018-04-01T01:51:07.508Z,55.30
2018-04-01T01:52:07.330Z,53.40
2018-04-01T01:53:07.327Z,53.60
2018-04-01T01:54:07.324Z,52.60
2018-04-01T01:55:07.334Z,54.00
2018-04-01T01:56:07.333Z,55.10
2018-04-01T01:57:07.329Z,54.10
2018-04-01T01:58:07.336Z,54.00
2018-04-01T01:59:07.338Z,53.80
2018-04-01T02:00:07.340Z,55.50
2018-04-01T02:01:07.352Z,56.50
2018-04-01T02:02:07.354Z,53.40
2018-04-01T02:03:07.352Z,51.40
2018-04-01T02:04:07.358Z,52.50
2018-04-01T02:05:07.363Z,52.70
2018-04-01T02:06:07.372Z,51.80
2018-04-01T02:07:07.569Z,51.10
2018-04-01T02:08:07.363Z,53.00
2018-04-01T02:09:07.372Z,50.50
2018-04-01T02:10:07.372Z,51.00
2018-04-01T02:11:07.378Z,52.30
2018-04-01T02:12:07.380Z,50.80
2018-04-01T02:13:07.381Z,52.60
2018-04-01T02:14:07.400Z,51.70
2018-04-01T02:15:07.394Z,50.40
2018-04-01T02:16:07.406Z,52.20
2018-04-01T02:17:07.405Z,51.80
2018-04-01T02:18:07.395Z,50.60
2018-04-01T02:19:07.403Z,49.20
2018-04-01T02:20:07.430Z,49.70
2018-04-01T02:21:07.414Z,50.10
2018-04-01T02:22:07.422Z,48.80
2018-04-01T02:23:07.414Z,49.30
2018-04-01T02:24:07.419Z,48.60
2018-04-01T02:25:07.701Z,49.40
2018-04-01T02:26:07.420Z,48.90
2018-04-01T02:27:07.428Z,49.30
2018-04-01T02:28:07.428Z,49.30
2018-04-01T02:29:07.429Z,50.30
2018-04-01T02:30:07.436Z,49.10
2018-04-01T02:31:07.441Z,48.20
2018-04-01T02:32:08.432Z,48.90
2018-04-01T02:33:07.441Z,49.70
2018-04-01T02:34:07.450Z,49.60
2018-04-01T02:35:07.446Z,51.10
2018-04-01T02:36:07.452Z,49.20
2018-04-01T02:37:07.452Z,48.60
2018-04-01T02:38:07.459Z,47.90
2018-04-01T02:39:07.492Z,47.10
2018-04-01T02:40:07.976Z,47.60
2018-04-01T02:41:07.475Z,48.70
2018-04-01T02:42:07.490Z,50.50
2018-04-01T02:43:07.481Z,50.80
2018-04-01T02:44:07.482Z,49.10
2018-04-01T02:45:07.482Z,46.10
2018-04-01T02:46:07.485Z,47.50
2018-04-01T02:47:07.500Z,47.50
2018-04-01T02:48:07.501Z,47.20
2018-04-01T02:49:07.499Z,47.80
2018-04-01T02:50:07.497Z,48.20
2018-04-01T02:51:07.503Z,49.10
2018-04-01T02:52:07.509Z,47.80
2018-04-01T02:53:07.501Z,48.40
2018-04-01T02:54:07.504Z,49.00
2018-04-01T02:55:07.509Z,48.70
2018-04-01T02:56:07.510Z,50.60
2018-04-01T02:57:08.423Z,50.20
2018-04-01T02:58:07.522Z,50.80
2018-04-01T02:59:08.451Z,50.10
2018-04-01T03:00:07.530Z,51.00
2018-04-01T03:01:07.535Z,50.50
2018-04-01T03:02:07.611Z,49.80
2018-04-01T03:03:07.540Z,48.50
2018-04-01T03:04:07.545Z,48.80
2018-04-01T03:05:07.552Z,47.90
2018-04-01T03:06:07.544Z,49.90
2018-04-01T03:07:07.552Z,48.70
2018-04-01T03:08:07.556Z,48.60
2018-04-01T03:09:07.555Z,49.50
2018-04-01T03:10:07.565Z,47.50
2018-04-01T03:11:07.608Z,52.50
2018-04-01T03:12:07.566Z,50.70
2018-04-01T03:13:07.575Z,48.20
2018-04-01T03:14:07.577Z,50.80
2018-04-01T03:15:07.579Z,50.00
2018-04-01T03:16:07.624Z,49.40
2018-04-01T03:17:07.594Z,48.40
2018-04-01T03:18:07.581Z,51.10
2018-04-01T03:19:07.613Z,50.10
2018-04-01T03:20:07.581Z,49.90
2018-04-01T03:21:07.592Z,51.80
2018-04-01T03:22:07.603Z,51.20
2018-04-01T03:23:07.593Z,50.70
2018-04-01T03:24:07.603Z,50.00
2018-04-01T03:25:07.606Z,49.60
2018-04-01T03:26:07.601Z,49.70
2018-04-01T03:27:07.608Z,51.40
2018-04-01T03:28:07.606Z,51.50
2018-04-01T03:29:07.622Z,49.90
2018-04-01T03:30:07.620Z,49.10
2018-04-01T03:31:07.690Z,50.30
2018-04-01T03:32:07.624Z,49.50
2018-04-01T03:33:07.618Z,49.50
2018-04-01T03:34:07.621Z,47.70
2018-04-01T03:35:07.632Z,49.20
2018-04-01T03:36:07.628Z,50.50
2018-04-01T03:37:07.650Z,51.60
2018-04-01T03:38:07.642Z,50.50
2018-04-01T03:39:07.635Z,51.10
2018-04-01T03:40:07.647Z,49.50
2018-04-01T03:41:07.659Z,50.30
2018-04-01T03:42:07.659Z,50.10
2018-04-01T03:43:07.669Z,52.10
2018-04-01T03:44:07.662Z,50.80
2018-04-01T03:45:07.671Z,51.40
2018-04-01T03:46:07.682Z,49.20
2018-04-01T03:47:07.684Z,50.30
2018-04-01T03:48:07.683Z,50.60
2018-04-01T03:49:07.669Z,50.00
2018-04-01T03:50:07.673Z,50.30
2018-04-01T03:51:07.677Z,49.00
2018-04-01T03:52:07.676Z,49.50
2018-04-01T03:53:07.683Z,50.30
2018-04-01T03:54:07.684Z,48.80
2018-04-01T03:55:07.685Z,51.10
2018-04-01T03:56:07.686Z,49.50
2018-04-01T03:57:07.699Z,49.20
2018-04-01T03:58:07.694Z,52.60
2018-04-01T03:59:07.700Z,48.70
2018-04-01T04:00:07.706Z,50.70
2018-04-01T04:01:07.712Z,53.30
2018-04-01T04:02:07.715Z,53.10
2018-04-01T04:03:07.706Z,52.90
2018-04-01T04:04:07.712Z,52.40
2018-04-01T04:05:07.781Z,51.80
2018-04-01T04:06:07.718Z,50.50
2018-04-01T04:07:07.731Z,50.50
2018-04-01T04:08:07.729Z,50.00
2018-04-01T04:09:07.728Z,50.80
2018-04-01T04:10:07.761Z,50.40
2018-04-01T04:11:07.736Z,50.70
2018-04-01T04:12:07.740Z,49.40
2018-04-01T04:13:07.755Z,50.50
2018-04-01T04:14:07.738Z,48.80
2018-04-01T04:15:07.755Z,51.90
2018-04-01T04:16:07.755Z,50.80
2018-04-01T04:17:07.752Z,50.40
2018-04-01T04:18:07.754Z,50.80
2018-04-01T04:19:07.769Z,51.10
2018-04-01T04:20:07.758Z,50.50
2018-04-01T04:21:07.768Z,49.60
2018-04-01T04:22:07.769Z,49.10
2018-04-01T04:23:07.771Z,49.50
2018-04-01T04:24:07.773Z,50.70
2018-04-01T04:25:07.769Z,50.10
2018-04-01T04:26:07.776Z,48.30
2018-04-01T04:27:07.783Z,48.30
2018-04-01T04:28:07.789Z,50.50
2018-04-01T04:29:07.795Z,49.20
2018-04-01T04:30:07.799Z,45.30
2018-04-01T04:31:07.806Z,47.80
2018-04-01T04:32:07.813Z,48.30
2018-04-01T04:33:07.808Z,47.90
2018-04-01T04:34:07.804Z,47.40
2018-04-01T04:35:07.803Z,46.50
2018-04-01T04:36:07.821Z,45.90
2018-04-01T04:37:07.832Z,45.90
2018-04-01T04:38:07.817Z,44.80
2018-04-01T04:39:07.814Z,44.40
2018-04-01T04:40:07.820Z,46.80
2018-04-01T04:41:07.824Z,45.40
2018-04-01T04:42:07.832Z,45.70
2018-04-01T04:43:07.834Z,45.50
2018-04-01T04:44:07.830Z,46.10
2018-04-01T04:45:07.838Z,47.50
2018-04-01T04:46:07.839Z,47.00
2018-04-01T04:47:07.844Z,48.20
2018-04-01T04:48:07.839Z,47.60
2018-04-01T04:49:07.843Z,47.90
2018-04-01T04:50:07.844Z,48.20
2018-04-01T04:51:07.849Z,48.80
2018-04-01T04:52:07.856Z,48.50
2018-04-01T04:53:07.863Z,47.10
2018-04-01T04:54:07.861Z,47.50
2018-04-01T04:55:07.858Z,48.00
2018-04-01T04:56:07.886Z,48.00
2018-04-01T04:57:07.877Z,48.70
2018-04-01T04:58:07.874Z,46.80
2018-04-01T04:59:07.863Z,46.80
2018-04-01T05:00:07.876Z,48.40
2018-04-01T05:01:07.877Z,48.40
2018-04-01T05:02:07.900Z,48.20
2018-04-01T05:03:07.880Z,49.00
2018-04-01T05:04:07.878Z,49.90
2018-04-01T05:05:07.891Z,48.40
2018-04-01T05:06:07.889Z,48.60
2018-04-01T05:07:07.892Z,48.60
2018-04-01T05:08:07.896Z,48.70
2018-04-01T05:09:07.902Z,50.00
2018-04-01T05:10:07.901Z,49.10
2018-04-01T05:11:07.906Z,50.00
2018-04-01T05:12:07.906Z,48.40
2018-04-01T05:13:07.915Z,48.90
2018-04-01T05:14:07.908Z,48.50
2018-04-01T05:15:07.923Z,49.40
2018-04-01T05:16:07.918Z,49.50
2018-04-01T05:17:08.012Z,51.10
2018-04-01T05:18:07.927Z,50.30
2018-04-01T05:19:07.933Z,48.80
2018-04-01T05:20:07.928Z,49.30
2018-04-01T05:21:07.938Z,50.60
2018-04-01T05:22:07.930Z,50.20
2018-04-01T05:23:07.934Z,49.90
2018-04-01T05:24:07.941Z,48.60
2018-04-01T05:25:07.936Z,48.30
2018-04-01T05:26:08.444Z,49.40
2018-04-01T05:27:07.948Z,49.70
2018-04-01T05:28:07.952Z,51.40
2018-04-01T05:29:07.959Z,49.10
2018-04-01T05:30:07.958Z,49.90
2018-04-01T05:31:07.962Z,49.60
2018-04-01T05:32:07.967Z,50.00
2018-04-01T05:33:07.963Z,50.80
2018-04-01T05:34:07.977Z,49.60
2018-04-01T05:35:07.971Z,50.00
2018-04-01T05:36:07.996Z,50.30
2018-04-01T05:37:07.980Z,49.90
2018-04-01T05:38:07.971Z,50.70
2018-04-01T05:39:07.983Z,49.10
2018-04-01T05:40:07.985Z,51.30
2018-04-01T05:41:07.989Z,50.50
2018-04-01T05:42:07.990Z,50.50
2018-04-01T05:43:07.988Z,50.70
2018-04-01T05:44:08.048Z,51.30
2018-04-01T05:45:08.008Z,51.90
2018-04-01T05:46:07.998Z,51.40
2018-04-01T05:47:07.996Z,51.30
2018-04-01T05:48:08.001Z,52.40
2018-04-01T05:49:08.004Z,49.80
2018-04-01T05:50:08.007Z,50.40
2018-04-01T05:51:08.011Z,51.60
2018-04-01T05:52:08.025Z,49.80
2018-04-01T05:53:08.014Z,51.40
2018-04-01T05:54:08.020Z,50.20
2018-04-01T05:55:08.021Z,50.20
2018-04-01T05:56:08.028Z,50.10
2018-04-01T05:57:08.032Z,49.60
2018-04-01T05:58:08.657Z,52.10
2018-04-01T05:59:08.036Z,50.40
2018-04-01T06:00:08.114Z,50.80
2018-04-01T06:01:08.045Z,53.30
2018-04-01T06:02:08.046Z,51.00
2018-04-01T06:03:08.041Z,51.00
2018-04-01T06:04:08.057Z,50.10
2018-04-01T06:05:08.049Z,52.60
2018-04-01T06:06:08.063Z,53.40
2018-04-01T06:07:08.060Z,52.70
2018-04-01T06:08:08.071Z,51.20
2018-04-01T06:09:08.067Z,52.10
2018-04-01T06:10:08.063Z,53.10
2018-04-01T06:11:08.068Z,52.60
2018-04-01T06:12:08.074Z,52.00
2018-04-01T06:13:08.069Z,53.10
2018-04-01T06:14:08.072Z,52.80
2018-04-01T06:15:08.075Z,53.00
2018-04-01T06:16:08.077Z,54.00
2018-04-01T06:17:08.081Z,53.90
2018-04-01T06:18:08.086Z,54.60
2018-04-01T06:19:08.093Z,56.00
2018-04-01T06:20:08.093Z,53.30
2018-04-01T06:21:08.093Z,55.30
2018-04-01T06:22:08.100Z,55.00
2018-04-01T06:23:08.106Z,53.80
2018-04-01T06:24:08.103Z,55.70
2018-04-01T06:25:08.105Z,54.00
2018-04-01T06:26:08.105Z,53.40
2018-04-01T06:27:08.119Z,55.00
2018-04-01T06:28:08.116Z,54.10
2018-04-01T06:29:08.123Z,54.90
2018-04-01T06:30:08.124Z,54.90
2018-04-01T06:31:08.128Z,52.30
2018-04-01T06:32:08.122Z,52.50
2018-04-01T06:33:08.144Z,54.70
2018-04-01T06:34:08.135Z,53.70
2018-04-01T06:35:08.140Z,48.00
2018-04-01T06:36:08.170Z,51.10
2018-04-01T06:37:08.145Z,51.10
2018-04-01T06:38:08.146Z,50.20
2018-04-01T06:39:08.148Z,50.90
2018-04-01T06:40:08.156Z,47.60
2018-04-01T06:41:08.150Z,49.50
2018-04-01T06:42:08.151Z,48.10
2018-04-01T06:43:08.152Z,49.20
2018-04-01T06:44:08.153Z,50.30
2018-04-01T06:45:08.162Z,49.00
2018-04-01T06:46:08.165Z,49.60
2018-04-01T06:47:08.170Z,49.40
2018-04-01T06:48:08.175Z,49.70
2018-04-01T06:49:08.162Z,49.70
2018-04-01T06:50:08.171Z,50.00
2018-04-01T06:51:08.169Z,50.10
2018-04-01T06:52:08.182Z,51.40
2018-04-01T06:53:08.180Z,49.50
2018-04-01T06:54:08.184Z,50.40
2018-04-01T06:55:08.215Z,50.10
2018-04-01T06:56:08.206Z,48.90
2018-04-01T06:57:08.202Z,48.20
2018-04-01T06:58:08.206Z,48.30
2018-04-01T06:59:08.193Z,46.70
2018-04-01T07:00:08.197Z,49.30
2018-04-01T07:01:08.210Z,48.80
2018-04-01T07:02:08.220Z,44.80
2018-04-01T07:03:08.207Z,43.20
2018-04-01T07:04:08.208Z,43.30
2018-04-01T07:05:08.211Z,45.10
2018-04-01T07:06:08.216Z,44.70
2018-04-01T07:07:08.211Z,44.60
2018-04-01T07:08:08.221Z,43.40
2018-04-01T07:09:08.224Z,42.10
2018-04-01T07:10:08.217Z,40.00
2018-04-01T07:11:08.229Z,40.80
2018-04-01T07:12:08.224Z,41.60
2018-04-01T07:13:08.234Z,40.00
2018-04-01T07:14:08.235Z,39.10
2018-04-01T07:15:08.236Z,40.50
2018-04-01T07:16:08.238Z,39.80
2018-04-01T07:17:08.249Z,40.30
2018-04-01T07:18:08.243Z,41.00
2018-04-01T07:19:08.249Z,41.60
2018-04-01T07:20:08.251Z,43.20
2018-04-01T07:21:08.271Z,41.30
2018-04-01T07:22:08.286Z,40.80
2018-04-01T07:23:08.264Z,40.50
2018-04-01T07:24:08.281Z,38.90
2018-04-01T07:25:08.287Z,39.50
2018-04-01T07:26:08.259Z,39.20
2018-04-01T07:27:08.279Z,40.30
2018-04-01T07:28:08.277Z,41.20
2018-04-01T07:29:08.274Z,42.00
2018-04-01T07:30:08.283Z,43.30
2018-04-01T07:31:08.272Z,44.90
2018-04-01T07:32:08.295Z,44.30
2018-04-01T07:33:08.277Z,44.50
2018-04-01T07:34:08.283Z,46.00
2018-04-01T07:35:08.289Z,45.50
2018-04-01T07:36:08.591Z,48.40
2018-04-01T07:37:08.296Z,48.30
2018-04-01T07:38:08.303Z,45.90
2018-04-01T07:39:08.297Z,48.50
2018-04-01T07:40:08.313Z,47.60
2018-04-01T07:41:08.463Z,47.90
2018-04-01T07:42:08.425Z,48.90
2018-04-01T07:43:08.347Z,48.10
2018-04-01T07:44:08.359Z,47.00
2018-04-01T07:45:08.338Z,46.30
2018-04-01T07:46:08.330Z,50.00
2018-04-01T07:47:08.352Z,51.10
2018-04-01T07:48:08.341Z,49.60
2018-04-01T07:49:08.342Z,52.00
2018-04-01T07:50:08.334Z,52.70
2018-04-01T07:51:08.440Z,51.80
2018-04-01T07:52:08.341Z,51.50
2018-04-01T07:53:08.357Z,51.40
2018-04-01T07:54:08.334Z,50.60
2018-04-01T07:55:08.339Z,51.60
2018-04-01T07:56:08.341Z,52.10
2018-04-01T07:57:08.499Z,50.00
2018-04-01T07:58:08.359Z,51.50
2018-04-01T07:59:08.350Z,51.90
2018-04-01T08:00:08.417Z,53.00
2018-04-01T08:01:08.359Z,51.60
2018-04-01T08:02:08.573Z,52.20
2018-04-01T08:03:08.362Z,51.70
2018-04-01T08:04:08.566Z,50.50
2018-04-01T08:05:08.374Z,52.90
2018-04-01T08:06:08.373Z,51.50
2018-04-01T08:07:08.383Z,53.20
2018-04-01T08:08:08.383Z,48.30
2018-04-01T08:09:08.389Z,51.80
2018-04-01T08:10:08.399Z,47.30
2018-04-01T08:11:08.406Z,49.50
2018-04-01T08:12:08.400Z,48.20
2018-04-01T08:13:08.414Z,48.50
2018-04-01T08:14:09.063Z,48.60
2018-04-01T08:15:08.411Z,49.50
2018-04-01T08:16:08.432Z,47.80
2018-04-01T08:17:08.420Z,48.10
2018-04-01T08:18:08.420Z,47.80
2018-04-01T08:19:08.415Z,46.90
2018-04-01T08:20:08.429Z,46.70
2018-04-01T08:21:08.414Z,45.20
2018-04-01T08:22:08.422Z,45.60
2018-04-01T08:23:08.430Z,47.50
2018-04-01T08:24:08.425Z,46.50
2018-04-01T08:25:08.446Z,47.90
2018-04-01T08:26:08.432Z,47.90
2018-04-01T08:27:08.448Z,45.80
2018-04-01T08:28:08.444Z,44.90
2018-04-01T08:29:08.472Z,45.80
2018-04-01T08:30:08.451Z,43.40
2018-04-01T08:31:08.453Z,42.10
2018-04-01T08:32:08.467Z,42.90
2018-04-01T08:33:08.452Z,42.60
2018-04-01T08:34:08.463Z,42.50
2018-04-01T08:35:08.464Z,42.50
2018-04-01T08:36:08.467Z,43.10
2018-04-01T08:37:08.479Z,43.40
2018-04-01T08:38:08.480Z,44.70
2018-04-01T08:39:08.498Z,43.30
2018-04-01T08:40:08.570Z,41.60
2018-04-01T08:41:08.519Z,40.60
2018-04-01T08:42:08.510Z,42.30
2018-04-01T08:43:08.515Z,38.90
2018-04-01T08:44:08.630Z,42.70
2018-04-01T08:45:08.501Z,42.00
2018-04-01T08:46:08.541Z,42.10
2018-04-01T08:47:08.535Z,39.60
2018-04-01T08:48:08.545Z,38.80
2018-04-01T08:49:08.522Z,36.80
2018-04-01T08:50:08.538Z,40.50
2018-04-01T08:51:08.523Z,40.40
2018-04-01T08:52:08.523Z,38.70
2018-04-01T08:53:08.524Z,39.30
2018-04-01T08:54:08.541Z,42.80
2018-04-01T08:55:08.540Z,39.70
2018-04-01T08:56:08.535Z,39.20
2018-04-01T08:57:08.550Z,40.10
2018-04-01T08:58:08.556Z,40.10
2018-04-01T08:59:08.549Z,40.20
2018-04-01T09:00:08.559Z,40.80
2018-04-01T09:01:08.563Z,41.90
2018-04-01T09:02:08.555Z,36.90
2018-04-01T09:03:08.565Z,35.70
2018-04-01T09:04:08.573Z,35.20
2018-04-01T09:05:08.592Z,36.40
2018-04-01T09:06:08.575Z,36.40
2018-04-01T09:07:08.587Z,37.20
2018-04-01T09:08:08.596Z,36.10
2018-04-01T09:09:08.596Z,36.60
2018-04-01T09:10:09.497Z,37.60
2018-04-01T09:11:08.602Z,36.50
2018-04-01T09:12:08.603Z,37.20
2018-04-01T09:13:08.599Z,37.10
2018-04-01T09:14:08.609Z,37.60
2018-04-01T09:15:08.615Z,38.10
2018-04-01T09:16:08.623Z,37.40
2018-04-01T09:17:08.621Z,39.30
2018-04-01T09:18:08.626Z,39.60
2018-04-01T09:19:08.630Z,40.70
2018-04-01T09:20:08.635Z,42.20
2018-04-01T09:21:08.629Z,41.50
2018-04-01T09:22:08.663Z,40.20
2018-04-01T09:23:08.642Z,41.90
2018-04-01T09:24:08.644Z,42.60
2018-04-01T09:25:08.647Z,46.00
2018-04-01T09:26:08.654Z,47.20
2018-04-01T09:27:08.656Z,48.10
2018-04-01T09:28:08.665Z,47.30
2018-04-01T09:29:08.669Z,45.90
2018-04-01T09:30:09.495Z,45.80
2018-04-01T09:31:08.677Z,47.30
2018-04-01T09:32:08.678Z,48.00
2018-04-01T09:33:08.682Z,48.60
2018-04-01T09:34:08.689Z,51.30
2018-04-01T09:35:08.696Z,47.50
2018-04-01T09:36:08.683Z,52.90
2018-04-01T09:37:08.692Z,49.10
2018-04-01T09:38:08.691Z,49.70
2018-04-01T09:39:08.701Z,50.00
2018-04-01T09:40:08.697Z,51.30
2018-04-01T09:41:08.710Z,50.40
2018-04-01T09:42:08.714Z,49.90
2018-04-01T09:43:08.713Z,51.30
2018-04-01T09:44:08.722Z,48.80
2018-04-01T09:45:08.718Z,50.80
2018-04-01T09:46:08.727Z,50.80
2018-04-01T09:47:08.731Z,52.60
2018-04-01T09:48:08.734Z,53.30
2018-04-01T09:49:08.748Z,54.20
2018-04-01T09:50:08.748Z,52.50
2018-04-01T09:51:08.738Z,54.70
2018-04-01T09:52:08.762Z,54.80
2018-04-01T09:53:08.749Z,54.40
2018-04-01T09:54:08.750Z,55.20
2018-04-01T09:55:08.756Z,55.40
2018-04-01T09:56:08.757Z,54.50
2018-04-01T09:57:08.769Z,52.90
2018-04-01T09:58:08.768Z,53.10
2018-04-01T09:59:08.772Z,51.20
2018-04-01T10:00:08.786Z,51.30
2018-04-01T10:01:08.781Z,50.80
2018-04-01T10:02:08.782Z,49.10
2018-04-01T10:03:08.789Z,51.40
2018-04-01T10:04:08.814Z,50.40
2018-04-01T10:05:08.806Z,52.60
2018-04-01T10:06:08.853Z,57.20
2018-04-01T10:07:08.802Z,56.20
2018-04-01T10:08:08.799Z,56.30
2018-04-01T10:09:08.811Z,60.00
2018-04-01T10:10:08.811Z,60.70
2018-04-01T10:11:08.819Z,66.20
2018-04-01T10:12:08.815Z,60.20
2018-04-01T10:13:08.829Z,58.70
2018-04-01T10:14:08.826Z,60.50
2018-04-01T10:15:08.825Z,61.10
2018-04-01T10:16:08.829Z,61.50
2018-04-01T10:17:08.832Z,60.10
2018-04-01T10:18:08.835Z,58.90
2018-04-01T10:19:08.843Z,56.90
2018-04-01T10:20:08.911Z,56.50
2018-04-01T10:21:08.850Z,57.60
2018-04-01T10:22:08.856Z,54.80
2018-04-01T10:23:08.858Z,54.50
2018-04-01T10:24:08.858Z,53.90
2018-04-01T10:25:08.871Z,55.20
2018-04-01T10:26:08.872Z,54.90
2018-04-01T10:27:08.867Z,54.40
2018-04-01T10:28:08.871Z,55.70
2018-04-01T10:29:08.876Z,55.30
2018-04-01T10:30:08.882Z,57.70
2018-04-01T10:31:08.887Z,59.00
2018-04-01T10:32:08.891Z,59.40
2018-04-01T10:33:08.889Z,59.40
2018-04-01T10:34:08.892Z,60.00
2018-04-01T10:35:08.903Z,61.30
2018-04-01T10:36:08.909Z,67.10
2018-04-01T10:37:08.910Z,67.20
2018-04-01T10:38:08.912Z,69.40
2018-04-01T10:39:08.914Z,70.10
2018-04-01T10:40:08.910Z,67.00
2018-04-01T10:41:08.973Z,66.90
2018-04-01T10:42:08.926Z,66.70
2018-04-01T10:43:08.928Z,68.30
2018-04-01T10:44:08.933Z,66.10
2018-04-01T10:45:09.511Z,66.50
2018-04-01T10:46:08.932Z,66.80
2018-04-01T10:47:08.941Z,69.40
2018-04-01T10:48:08.948Z,69.10
2018-04-01T10:49:08.945Z,66.70
2018-04-01T10:50:08.953Z,65.70
2018-04-01T10:51:08.961Z,68.40
2018-04-01T10:52:08.961Z,69.40
2018-04-01T10:53:08.968Z,70.30
2018-04-01T10:54:08.962Z,73.40
2018-04-01T10:55:08.963Z,72.20
2018-04-01T10:56:08.970Z,75.40
2018-04-01T10:57:08.978Z,74.00
2018-04-01T10:58:08.981Z,72.50
2018-04-01T10:59:09.075Z,73.00
2018-04-01T11:00:08.988Z,72.40
2018-04-01T11:01:08.983Z,72.60
2018-04-01T11:02:08.992Z,69.30
2018-04-01T11:03:08.997Z,73.20
2018-04-01T11:04:09.001Z,70.20
2018-04-01T11:05:09.025Z,71.90
2018-04-01T11:06:09.011Z,69.60
2018-04-01T11:07:09.004Z,73.20
2018-04-01T11:08:09.018Z,74.00
2018-04-01T11:09:09.020Z,70.10
2018-04-01T11:10:09.030Z,70.90
2018-04-01T11:11:09.041Z,72.10
2018-04-01T11:12:09.043Z,69.50
2018-04-01T11:13:09.044Z,68.40
2018-04-01T11:14:09.045Z,68.20
2018-04-01T11:15:09.052Z,67.80
2018-04-01T11:16:09.050Z,66.60
2018-04-01T11:17:09.063Z,66.80
2018-04-01T11:18:09.073Z,68.80
2018-04-01T11:19:09.054Z,66.80
2018-04-01T11:20:09.087Z,65.40
2018-04-01T11:21:09.062Z,66.50
2018-04-01T11:22:09.070Z,61.70
2018-04-01T11:23:09.070Z,62.40
2018-04-01T11:24:09.077Z,61.40
2018-04-01T11:25:09.086Z,62.70
2018-04-01T11:26:09.082Z,62.40
2018-04-01T11:27:09.151Z,63.30
2018-04-01T11:28:09.096Z,60.50
2018-04-01T11:29:09.092Z,59.00
2018-04-01T11:30:09.098Z,57.30
2018-04-01T11:31:09.220Z,59.00
2018-04-01T11:32:09.120Z,56.70
2018-04-01T11:33:09.231Z,55.30
2018-04-01T11:34:09.121Z,54.90
2018-04-01T11:35:09.120Z,56.00
2018-04-01T11:36:09.126Z,58.60
2018-04-01T11:37:09.142Z,54.60
2018-04-01T11:38:09.156Z,52.30
2018-04-01T11:39:09.136Z,53.30
2018-04-01T11:40:09.150Z,53.70
2018-04-01T11:41:09.204Z,56.80
2018-04-01T11:42:09.155Z,57.10
2018-04-01T11:43:09.161Z,58.50
2018-04-01T11:44:09.166Z,58.80
2018-04-01T11:45:09.165Z,58.40
2018-04-01T11:46:09.173Z,60.60
2018-04-01T11:47:09.183Z,56.80
2018-04-01T11:48:09.192Z,57.30
2018-04-01T11:49:09.191Z,55.80
2018-04-01T11:50:09.190Z,57.50
2018-04-01T11:51:09.196Z,55.80
2018-04-01T11:52:09.446Z,54.90
2018-04-01T11:53:09.209Z,56.50
2018-04-01T11:54:09.325Z,57.00
2018-04-01T11:55:09.217Z,54.80
2018-04-01T11:56:09.226Z,53.80
2018-04-01T11:57:09.239Z,52.90
2018-04-01T11:58:09.243Z,54.30
2018-04-01T11:59:09.256Z,53.40
2018-04-01T12:00:09.240Z,52.60
2018-04-01T12:01:09.253Z,51.00
2018-04-01T12:02:09.241Z,51.80
2018-04-01T12:03:09.249Z,52.30
2018-04-01T12:04:09.255Z,51.30
2018-04-01T12:05:09.261Z,50.10
2018-04-01T12:06:09.263Z,50.50
2018-04-01T12:07:09.277Z,51.70
2018-04-01T12:08:09.281Z,52.10
2018-04-01T12:09:09.309Z,52.80
2018-04-01T12:10:09.292Z,51.90
2018-04-01T12:11:09.283Z,53.20
2018-04-01T12:12:09.288Z,53.20
2018-04-01T12:13:09.297Z,54.80
2018-04-01T12:14:09.395Z,52.80
2018-04-01T12:15:09.316Z,55.10
2018-04-01T12:16:09.318Z,53.70
2018-04-01T12:17:09.314Z,54.30
2018-04-01T12:18:10.040Z,53.60
2018-04-01T12:19:09.328Z,55.20
2018-04-01T12:20:09.345Z,54.10
2018-04-01T12:21:09.338Z,52.00
2018-04-01T12:22:09.340Z,53.20
2018-04-01T12:23:09.346Z,54.80
2018-04-01T12:24:09.358Z,50.70
2018-04-01T12:25:09.352Z,52.00
2018-04-01T12:26:09.359Z,53.60
2018-04-01T12:27:09.361Z,51.20
2018-04-01T12:28:09.364Z,50.00
2018-04-01T12:29:09.374Z,51.60
2018-04-01T12:30:09.374Z,49.30
2018-04-01T12:31:10.279Z,45.90
2018-04-01T12:32:09.427Z,46.40
2018-04-01T12:33:09.454Z,49.70
2018-04-01T12:34:09.404Z,48.20
2018-04-01T12:35:09.397Z,49.50
2018-04-01T12:36:09.501Z,48.90
2018-04-01T12:37:09.413Z,48.10
2018-04-01T12:38:09.428Z,49.50
2018-04-01T12:39:09.434Z,46.80
2018-04-01T12:40:09.430Z,46.30
2018-04-01T12:41:09.437Z,47.10
2018-04-01T12:42:09.444Z,45.70
2018-04-01T12:43:09.437Z,46.50
2018-04-01T12:44:09.554Z,45.40
2018-04-01T12:45:09.465Z,44.20
2018-04-01T12:46:09.468Z,45.60
2018-04-01T12:47:10.059Z,44.30
2018-04-01T12:48:09.479Z,44.70
2018-04-01T12:49:09.480Z,43.20
2018-04-01T12:50:09.487Z,43.00
2018-04-01T12:51:09.498Z,42.30
2018-04-01T12:52:09.501Z,40.70